Ariquemes, Brazil
Current Conditions -  °F | °C
As of 8:00 PM on Friday 24 Oct 2014 (Local Time) from SBPV Reporting Station
Thunderstorm Thunderstorm  
Wind Chill: 73°   Ceiling: Unl
Heat Index: 73°   Visibility: 3mi
Dew Point: 72°   Wind: 7mph
Humidity: 94%   Direction: 150°SSE
Pressure: 29.8"   Gusts: NA
Location:  9.91°S, 63.04°W
Report Text: SBPV 250000Z 15006KT 5000 TS BR SCT020 FEW025CB 23/22 Q1009
Loading
Personal Weather Stations






























Interactive Weather Map
Tropical Storm Tracking
New forecast layout! Learn more

10-Day Weather Forecast

Advertisements
Track Severe Weather on mobile